createdAt,value
2023-07-25T00:00:34.350Z,19.20
2023-07-25T00:03:02.743Z,19.20
2023-07-25T00:05:30.822Z,19.10
2023-07-25T00:08:01.666Z,19.20
2023-07-25T00:10:34.262Z,19.00
2023-07-25T00:13:02.433Z,19.00
2023-07-25T00:15:30.565Z,18.90
2023-07-25T00:18:01.042Z,18.90
2023-07-25T00:20:29.353Z,18.90
2023-07-25T00:22:57.436Z,18.90
2023-07-25T00:25:25.894Z,18.90
2023-07-25T00:27:54.125Z,18.90
2023-07-25T00:30:25.553Z,18.90
2023-07-25T00:32:53.817Z,18.80
2023-07-25T00:35:22.137Z,18.80
2023-07-25T00:37:52.894Z,18.70
2023-07-25T00:40:21.116Z,18.70
2023-07-25T00:42:54.556Z,18.70
2023-07-25T00:45:25.520Z,18.60
2023-07-25T00:47:54.130Z,18.60
2023-07-25T00:50:22.488Z,18.60
2023-07-25T00:52:51.402Z,18.50
2023-07-25T00:55:19.796Z,18.30
2023-07-25T00:57:47.993Z,18.30
2023-07-25T01:00:16.101Z,18.20
2023-07-25T01:02:44.342Z,18.10
2023-07-25T01:05:14.924Z,18.10
2023-07-25T01:07:43.125Z,18.10
2023-07-25T01:10:11.354Z,18.20
2023-07-25T01:12:39.495Z,18.20
2023-07-25T01:15:07.893Z,18.20
2023-07-25T01:17:36.500Z,18.00
2023-07-25T01:20:09.695Z,18.00
2023-07-25T01:22:38.797Z,18.00
2023-07-25T01:25:08.559Z,18.00
2023-07-25T01:27:39.323Z,17.90
2023-07-25T01:30:07.849Z,17.80
2023-07-25T01:32:36.030Z,17.90
2023-07-25T01:35:04.747Z,17.90
2023-07-25T01:37:32.891Z,17.90
2023-07-25T01:40:01.100Z,17.80
2023-07-25T01:42:29.318Z,17.70
2023-07-25T01:44:57.597Z,17.70
2023-07-25T01:47:27.585Z,17.70
2023-07-25T01:49:58.757Z,17.90
2023-07-25T01:52:26.927Z,17.80
2023-07-25T01:54:55.404Z,17.80
2023-07-25T01:57:23.667Z,17.90
2023-07-25T01:59:53.302Z,17.80
2023-07-25T02:02:21.510Z,17.80
2023-07-25T02:04:52.148Z,17.70
2023-07-25T02:07:20.248Z,17.60
2023-07-25T02:09:50.639Z,17.60
2023-07-25T02:12:19.792Z,17.60
2023-07-25T02:14:50.641Z,17.60
2023-07-25T02:17:21.574Z,17.60
2023-07-25T02:19:49.830Z,17.60
2023-07-25T02:22:18.026Z,17.60
2023-07-25T02:24:46.176Z,17.50
2023-07-25T02:27:14.412Z,17.50
2023-07-25T02:29:42.589Z,17.50
2023-07-25T02:32:10.715Z,17.50
2023-07-25T02:34:38.815Z,17.50
2023-07-25T02:37:07.058Z,17.50
2023-07-25T02:39:36.292Z,17.40
2023-07-25T02:42:04.637Z,17.30
2023-07-25T02:44:32.793Z,17.30
2023-07-25T02:47:00.927Z,17.30
2023-07-25T02:49:29.140Z,17.30
2023-07-25T02:51:57.204Z,17.30
2023-07-25T02:54:25.526Z,17.30
2023-07-25T02:56:55.990Z,17.40
2023-07-25T02:59:24.192Z,17.30
2023-07-25T03:01:52.359Z,17.40
2023-07-25T03:04:20.686Z,17.40
2023-07-25T03:06:48.776Z,17.30
2023-07-25T03:09:17.024Z,17.30
2023-07-25T03:11:45.174Z,17.30
2023-07-25T03:14:13.344Z,17.20
2023-07-25T03:16:41.552Z,17.30
2023-07-25T03:19:09.783Z,17.30
2023-07-25T03:21:38.312Z,17.30
2023-07-25T03:24:06.649Z,17.30
2023-07-25T03:26:34.720Z,17.40
2023-07-25T03:29:02.926Z,17.40
2023-07-25T03:31:31.930Z,17.40
2023-07-25T03:34:02.697Z,17.50
2023-07-25T03:36:30.812Z,17.60
2023-07-25T03:39:01.275Z,17.60
2023-07-25T03:41:31.975Z,17.50
2023-07-25T03:44:00.527Z,17.50
2023-07-25T03:46:28.750Z,17.60
2023-07-25T03:48:59.677Z,17.60
2023-07-25T03:51:27.914Z,17.60
2023-07-25T03:53:56.111Z,17.70
2023-07-25T03:56:24.313Z,17.70
2023-07-25T03:58:54.761Z,17.80
2023-07-25T04:01:27.882Z,17.80
2023-07-25T04:03:56.254Z,17.80
2023-07-25T04:06:31.671Z,17.80
2023-07-25T04:08:59.946Z,17.90
2023-07-25T04:11:28.285Z,17.90
2023-07-25T04:13:56.685Z,18.00
2023-07-25T04:16:25.024Z,18.00
2023-07-25T04:18:53.211Z,18.10
2023-07-25T04:21:23.592Z,18.10
2023-07-25T04:23:51.762Z,18.20
2023-07-25T04:26:20.046Z,18.20
2023-07-25T04:28:49.956Z,18.30
2023-07-25T04:31:18.185Z,18.40
2023-07-25T04:33:46.423Z,18.50
2023-07-25T04:36:14.779Z,18.60
2023-07-25T04:38:45.267Z,18.70
2023-07-25T04:41:13.574Z,18.80
2023-07-25T04:43:41.692Z,18.80
2023-07-25T04:46:09.797Z,18.90
2023-07-25T04:48:40.200Z,19.00
2023-07-25T04:51:10.746Z,19.00
2023-07-25T04:53:39.014Z,19.10
2023-07-25T04:56:07.229Z,19.20
2023-07-25T04:58:39.977Z,19.40
2023-07-25T05:01:08.981Z,19.50
2023-07-25T05:03:37.297Z,19.60
2023-07-25T05:06:05.607Z,19.70
2023-07-25T05:08:33.715Z,19.80
2023-07-25T05:11:03.493Z,19.90
2023-07-25T05:13:31.729Z,20.00
2023-07-25T05:16:02.177Z,20.10
2023-07-25T05:18:30.526Z,20.30
2023-07-25T05:20:58.571Z,20.40
2023-07-25T05:23:26.762Z,20.50
2023-07-25T05:25:59.735Z,20.70
2023-07-25T05:28:27.820Z,20.90
2023-07-25T05:30:55.951Z,21.10
2023-07-25T05:33:24.110Z,21.20
2023-07-25T05:35:59.982Z,21.40
2023-07-25T05:38:28.259Z,21.50
2023-07-25T05:40:57.330Z,21.70
2023-07-25T05:43:25.615Z,21.90
2023-07-25T05:45:53.831Z,22.10
2023-07-25T05:48:22.158Z,22.20
2023-07-25T05:50:53.797Z,22.40
2023-07-25T05:53:22.023Z,22.60
2023-07-25T05:55:50.153Z,22.80
2023-07-25T05:58:20.718Z,22.90
2023-07-25T06:00:49.249Z,23.10
2023-07-25T06:03:17.687Z,23.40
2023-07-25T06:05:45.931Z,23.50
2023-07-25T06:08:14.053Z,23.70
2023-07-25T06:10:42.175Z,23.90
2023-07-25T06:13:12.861Z,24.10
2023-07-25T06:15:44.109Z,24.30
2023-07-25T06:18:12.319Z,24.40
2023-07-25T06:20:40.671Z,24.50
2023-07-25T06:23:08.918Z,24.70
2023-07-25T06:25:37.804Z,24.70
2023-07-25T06:28:07.586Z,24.90
2023-07-25T06:30:36.187Z,25.00
2023-07-25T06:33:04.718Z,25.20
2023-07-25T06:35:33.044Z,25.40
2023-07-25T06:38:04.551Z,25.60
2023-07-25T06:40:32.905Z,25.70
2023-07-25T06:43:01.186Z,25.90
2023-07-25T06:45:30.027Z,26.20
2023-07-25T06:47:58.182Z,26.40
2023-07-25T06:50:34.482Z,26.70
2023-07-25T06:53:02.764Z,26.90
2023-07-25T06:55:40.718Z,27.20
2023-07-25T06:58:08.814Z,27.40
2023-07-25T07:00:40.958Z,27.70
2023-07-25T07:03:10.259Z,28.00
2023-07-25T07:05:38.544Z,28.20
2023-07-25T07:08:06.824Z,28.50
2023-07-25T07:10:35.283Z,28.80
2023-07-25T07:13:03.870Z,29.10
2023-07-25T07:15:37.889Z,29.40
2023-07-25T07:18:06.117Z,29.80
2023-07-25T07:20:34.393Z,30.10
2023-07-25T07:23:02.529Z,30.40
2023-07-25T07:25:30.707Z,30.70
2023-07-25T07:27:58.914Z,31.10
2023-07-25T07:30:28.145Z,31.40
2023-07-25T07:32:57.300Z,31.80
2023-07-25T07:35:25.908Z,32.30
2023-07-25T07:37:54.848Z,32.70
2023-07-25T07:40:23.178Z,33.10
2023-07-25T07:42:51.530Z,33.50
2023-07-25T07:45:25.400Z,34.00
2023-07-25T07:47:56.543Z,34.30
2023-07-25T07:50:25.065Z,34.70
2023-07-25T07:52:56.653Z,35.10
2023-07-25T07:55:27.775Z,35.50
2023-07-25T07:57:56.930Z,35.80
2023-07-25T08:00:28.088Z,35.90
2023-07-25T08:03:01.664Z,36.20
2023-07-25T08:05:32.706Z,36.30
2023-07-25T08:08:00.968Z,36.50
2023-07-25T08:10:29.277Z,37.10
2023-07-25T08:12:57.441Z,37.40
2023-07-25T08:15:25.560Z,38.10
2023-07-25T08:17:56.144Z,38.70
2023-07-25T08:20:24.486Z,38.80
2023-07-25T08:22:53.116Z,39.30
2023-07-25T08:25:21.252Z,39.50
2023-07-25T08:27:49.418Z,39.80
2023-07-25T08:30:17.571Z,40.00
2023-07-25T08:32:48.262Z,40.40
2023-07-25T08:35:16.636Z,41.00
2023-07-25T08:37:44.767Z,41.20
2023-07-25T08:40:13.046Z,41.60
2023-07-25T08:42:45.643Z,41.90
2023-07-25T08:45:14.098Z,42.00
2023-07-25T08:47:42.955Z,42.20
2023-07-25T08:50:16.660Z,42.40
2023-07-25T08:52:49.928Z,42.40
2023-07-25T08:55:21.927Z,42.60
2023-07-25T08:57:50.663Z,42.90
2023-07-25T09:00:20.916Z,42.90
2023-07-25T09:02:53.371Z,43.20
2023-07-25T09:05:22.222Z,43.30
2023-07-25T09:07:50.328Z,43.60
2023-07-25T09:10:21.080Z,43.80
2023-07-25T09:12:51.732Z,43.80
2023-07-25T09:15:22.945Z,43.90
2023-07-25T09:17:53.884Z,44.20
2023-07-25T09:20:22.491Z,44.10
2023-07-25T09:22:50.616Z,44.40
2023-07-25T09:25:18.905Z,44.70
2023-07-25T09:27:55.056Z,44.70
2023-07-25T09:30:30.516Z,44.70
2023-07-25T09:32:58.811Z,45.10
2023-07-25T09:35:26.969Z,45.20
2023-07-25T09:37:56.113Z,45.20
2023-07-25T09:40:24.563Z,45.30
2023-07-25T09:42:52.904Z,45.70
2023-07-25T09:45:21.385Z,45.90
2023-07-25T09:47:52.023Z,45.90
2023-07-25T09:50:23.364Z,46.40
2023-07-25T09:52:54.256Z,46.50
2023-07-25T09:55:24.693Z,46.60
2023-07-25T09:57:56.524Z,46.80
2023-07-25T10:00:25.075Z,47.00
2023-07-25T10:02:54.111Z,46.80
2023-07-25T10:05:22.983Z,47.00
2023-07-25T10:07:55.498Z,47.20
2023-07-25T10:10:27.095Z,47.10
2023-07-25T10:12:56.399Z,47.60
2023-07-25T10:15:34.204Z,47.70
2023-07-25T10:18:03.237Z,48.00
2023-07-25T10:20:31.603Z,48.10
2023-07-25T10:23:10.963Z,47.90
2023-07-25T10:25:39.230Z,48.10
2023-07-25T10:28:08.181Z,48.20
2023-07-25T10:30:46.765Z,48.30
2023-07-25T10:33:17.704Z,48.50
2023-07-25T10:35:52.090Z,48.80
2023-07-25T10:38:36.533Z,48.60
2023-07-25T10:41:10.962Z,48.80
2023-07-25T10:43:50.707Z,48.90
2023-07-25T10:46:27.886Z,49.40
2023-07-25T10:48:57.040Z,49.50
2023-07-25T10:51:45.192Z,49.90
2023-07-25T10:54:18.689Z,49.90
2023-07-25T10:57:05.592Z,50.00
2023-07-25T10:59:33.839Z,50.30
2023-07-25T11:02:02.746Z,50.30
2023-07-25T11:04:32.407Z,50.10
2023-07-25T11:07:01.039Z,49.90
2023-07-25T11:09:31.394Z,49.80
2023-07-25T11:12:01.782Z,50.00
2023-07-25T11:14:35.603Z,50.10
2023-07-25T11:17:07.292Z,49.90
2023-07-25T11:19:35.555Z,49.90
2023-07-25T11:22:09.043Z,49.80
2023-07-25T11:24:44.484Z,49.70
2023-07-25T11:27:13.265Z,50.40
2023-07-25T11:29:44.179Z,50.70
2023-07-25T11:32:12.374Z,51.00
2023-07-25T11:34:41.569Z,50.80
2023-07-25T11:37:10.481Z,51.10
2023-07-25T11:39:38.565Z,51.10
2023-07-25T11:42:11.187Z,50.90
2023-07-25T11:44:41.873Z,50.90
2023-07-25T11:47:10.203Z,50.80
2023-07-25T11:49:49.523Z,50.40
2023-07-25T11:52:20.640Z,50.40
2023-07-25T11:54:49.142Z,50.70
2023-07-25T11:57:17.366Z,50.70
2023-07-25T11:59:45.522Z,50.50
2023-07-25T12:02:14.176Z,50.70
2023-07-25T12:04:46.096Z,50.50
2023-07-25T12:07:15.388Z,50.50
2023-07-25T12:09:50.494Z,50.30
2023-07-25T12:12:18.931Z,50.40
2023-07-25T12:14:57.077Z,50.20
2023-07-25T12:17:41.433Z,49.80
2023-07-25T12:20:21.435Z,49.70
2023-07-25T12:22:49.628Z,49.70
2023-07-25T12:25:20.872Z,49.60
2023-07-25T12:27:49.738Z,49.60
2023-07-25T12:30:18.168Z,49.30
2023-07-25T12:32:46.438Z,49.00
2023-07-25T12:35:14.658Z,48.90
2023-07-25T12:37:42.729Z,49.00
2023-07-25T12:40:11.005Z,49.10
2023-07-25T12:42:39.240Z,49.50
2023-07-25T12:45:10.445Z,49.60
2023-07-25T12:47:39.484Z,49.60
2023-07-25T12:50:10.788Z,49.90
2023-07-25T12:52:39.062Z,49.80
2023-07-25T12:55:07.767Z,49.70
2023-07-25T12:57:36.012Z,49.60
2023-07-25T13:00:08.662Z,49.40
2023-07-25T13:02:38.478Z,49.30
2023-07-25T13:05:07.422Z,49.10
2023-07-25T13:07:36.784Z,48.60
2023-07-25T13:10:08.096Z,48.70
2023-07-25T13:12:36.934Z,48.90
2023-07-25T13:15:06.630Z,48.80
2023-07-25T13:17:35.693Z,48.80
2023-07-25T13:20:05.624Z,49.10
2023-07-25T13:22:33.987Z,49.20
2023-07-25T13:25:03.060Z,49.00
2023-07-25T13:27:31.370Z,48.70
2023-07-25T13:29:59.721Z,48.20
2023-07-25T13:32:28.393Z,48.20
2023-07-25T13:34:58.846Z,48.40
2023-07-25T13:37:27.067Z,48.20
2023-07-25T13:39:55.271Z,47.90
2023-07-25T13:42:24.332Z,48.00
2023-07-25T13:44:52.552Z,48.10
2023-07-25T13:47:21.917Z,48.30
2023-07-25T13:49:50.124Z,48.60
2023-07-25T13:52:18.634Z,48.60
2023-07-25T13:54:46.833Z,48.70
2023-07-25T13:57:15.244Z,48.60
2023-07-25T13:59:43.637Z,48.50
2023-07-25T14:02:11.727Z,48.40
2023-07-25T14:04:42.891Z,48.00
2023-07-25T14:07:14.853Z,48.00
2023-07-25T14:09:43.227Z,48.00
2023-07-25T14:12:11.520Z,47.80
2023-07-25T14:14:40.488Z,47.50
2023-07-25T14:17:08.858Z,47.60
2023-07-25T14:19:37.028Z,47.50
2023-07-25T14:22:05.540Z,47.20
2023-07-25T14:24:33.990Z,47.00
2023-07-25T14:27:02.505Z,47.00
2023-07-25T14:29:30.685Z,46.90
2023-07-25T14:31:59.832Z,46.80
2023-07-25T14:34:28.021Z,46.40
2023-07-25T14:36:56.240Z,46.10
2023-07-25T14:39:24.322Z,46.10
2023-07-25T14:41:52.954Z,45.90
2023-07-25T14:44:24.131Z,45.90
2023-07-25T14:46:52.272Z,45.60
2023-07-25T14:49:21.310Z,45.40
2023-07-25T14:51:50.353Z,45.40
2023-07-25T14:54:18.456Z,45.30
2023-07-25T14:56:46.725Z,44.80
2023-07-25T14:59:15.447Z,44.80
2023-07-25T15:01:43.625Z,44.80
2023-07-25T15:04:11.915Z,44.60
2023-07-25T15:06:40.117Z,44.40
2023-07-25T15:09:08.238Z,44.10
2023-07-25T15:11:36.783Z,44.00
2023-07-25T15:14:08.027Z,43.60
2023-07-25T15:16:36.811Z,43.40
2023-07-25T15:19:05.050Z,43.40
2023-07-25T15:21:33.556Z,42.90
2023-07-25T15:24:02.353Z,42.90
2023-07-25T15:26:30.695Z,42.50
2023-07-25T15:28:59.526Z,42.30
2023-07-25T15:31:27.784Z,42.00
2023-07-25T15:33:56.190Z,41.90
2023-07-25T15:36:24.575Z,41.60
2023-07-25T15:38:52.721Z,41.60
2023-07-25T15:41:20.895Z,41.50
2023-07-25T15:43:49.330Z,41.10
2023-07-25T15:46:17.726Z,40.80
2023-07-25T15:48:48.478Z,40.50
2023-07-25T15:51:17.720Z,40.40
2023-07-25T15:53:45.936Z,40.10
2023-07-25T15:56:16.068Z,40.00
2023-07-25T15:58:44.154Z,39.80
2023-07-25T16:01:12.383Z,39.80
2023-07-25T16:03:43.967Z,39.50
2023-07-25T16:06:15.111Z,39.40
2023-07-25T16:08:43.333Z,39.10
2023-07-25T16:11:11.539Z,38.80
2023-07-25T16:13:40.685Z,38.30
2023-07-25T16:16:12.076Z,38.10
2023-07-25T16:18:40.435Z,37.90
2023-07-25T16:21:11.541Z,37.80
2023-07-25T16:23:39.842Z,37.50
2023-07-25T16:26:08.059Z,37.40
2023-07-25T16:28:36.289Z,37.10
2023-07-25T16:31:30.373Z,37.00
2023-07-25T16:33:53.102Z,36.50
2023-07-25T16:36:21.400Z,36.40
2023-07-25T16:38:49.572Z,36.10
2023-07-25T16:41:19.098Z,36.00
2023-07-25T16:43:47.297Z,35.80
2023-07-25T16:46:15.892Z,35.70
2023-07-25T16:48:44.176Z,35.50
2023-07-25T16:51:17.635Z,35.30
2023-07-25T16:53:45.903Z,34.80
2023-07-25T16:56:14.385Z,34.60
2023-07-25T16:58:42.526Z,34.60
2023-07-25T17:01:11.432Z,34.50
2023-07-25T17:03:39.526Z,34.40
2023-07-25T17:06:07.910Z,34.20
2023-07-25T17:08:36.278Z,34.10
2023-07-25T17:11:08.348Z,34.00
2023-07-25T17:13:36.610Z,33.90
2023-07-25T17:16:07.366Z,33.60
2023-07-25T17:18:35.931Z,33.30
2023-07-25T17:21:04.300Z,33.00
2023-07-25T17:23:32.644Z,32.80
2023-07-25T17:26:00.959Z,32.80
2023-07-25T17:28:29.006Z,32.60
2023-07-25T17:30:57.566Z,32.40
2023-07-25T17:33:25.739Z,32.40
2023-07-25T17:35:53.976Z,32.30
2023-07-25T17:38:22.179Z,31.90
2023-07-25T17:40:50.610Z,31.90
2023-07-25T17:43:18.828Z,31.50
2023-07-25T17:45:48.032Z,31.00
2023-07-25T17:48:18.379Z,30.70
2023-07-25T17:50:51.191Z,30.60
2023-07-25T17:53:20.618Z,30.60
2023-07-25T17:55:49.828Z,30.60
2023-07-25T17:58:18.014Z,30.70
2023-07-25T18:00:48.187Z,30.80
2023-07-25T18:03:16.684Z,30.70
2023-07-25T18:05:46.928Z,30.40
2023-07-25T18:08:15.659Z,30.30
2023-07-25T18:10:44.834Z,30.20
2023-07-25T18:13:13.761Z,30.10
2023-07-25T18:15:41.928Z,30.20
2023-07-25T18:18:10.230Z,29.90
2023-07-25T18:20:41.128Z,29.80
2023-07-25T18:23:09.246Z,29.60
2023-07-25T18:25:38.324Z,29.40
2023-07-25T18:28:06.910Z,29.40
2023-07-25T18:30:38.593Z,29.30
2023-07-25T18:33:07.299Z,29.20
2023-07-25T18:35:35.440Z,29.30
2023-07-25T18:38:03.651Z,29.20
2023-07-25T18:40:31.774Z,28.90
2023-07-25T18:43:00.050Z,28.80
2023-07-25T18:45:29.957Z,28.80
2023-07-25T18:47:58.282Z,28.70
2023-07-25T18:50:26.741Z,28.40
2023-07-25T18:52:55.713Z,28.40
2023-07-25T18:55:24.014Z,28.20
2023-07-25T18:57:52.264Z,27.80
2023-07-25T19:00:20.627Z,27.70
2023-07-25T19:02:48.841Z,27.70
2023-07-25T19:05:17.239Z,27.80
2023-07-25T19:07:45.459Z,27.70
2023-07-25T19:10:13.578Z,27.70
2023-07-25T19:12:41.718Z,27.50
2023-07-25T19:15:10.175Z,27.30
2023-07-25T19:17:38.268Z,27.10
2023-07-25T19:20:07.190Z,27.20
2023-07-25T19:22:35.676Z,27.10
2023-07-25T19:25:03.958Z,27.10
2023-07-25T19:27:35.164Z,27.00
2023-07-25T19:30:04.680Z,26.80
2023-07-25T19:32:32.936Z,26.70
2023-07-25T19:35:01.304Z,26.60
2023-07-25T19:37:29.646Z,26.50
2023-07-25T19:39:57.867Z,26.50
2023-07-25T19:42:28.731Z,26.50
2023-07-25T19:44:56.966Z,26.50
2023-07-25T19:47:25.255Z,26.40
2023-07-25T19:49:53.486Z,26.20
2023-07-25T19:52:21.712Z,26.30
2023-07-25T19:54:50.644Z,26.20
2023-07-25T19:57:18.847Z,26.00
2023-07-25T19:59:47.073Z,26.00
2023-07-25T20:02:15.861Z,26.00
2023-07-25T20:04:43.994Z,26.20
2023-07-25T20:07:12.184Z,26.20
2023-07-25T20:09:40.508Z,26.00
2023-07-25T20:12:09.771Z,26.00
2023-07-25T20:14:37.979Z,25.90
2023-07-25T20:17:06.330Z,26.00
2023-07-25T20:19:34.528Z,26.00
2023-07-25T20:28:35.748Z,25.50
2023-07-25T20:31:04.879Z,25.40
2023-07-25T20:33:41.658Z,25.40
2023-07-25T20:36:18.632Z,25.40
2023-07-25T20:39:00.653Z,25.40
2023-07-25T20:41:40.671Z,25.40
2023-07-25T20:44:17.693Z,25.30
2023-07-25T20:46:56.724Z,25.20
2023-07-25T20:49:35.720Z,25.20
2023-07-25T20:52:14.693Z,25.00
2023-07-25T20:54:56.721Z,24.90
2023-07-25T20:57:30.692Z,24.80
2023-07-25T21:00:06.690Z,24.70
2023-07-25T21:02:38.687Z,24.60
2023-07-25T21:05:07.133Z,24.60
2023-07-25T21:07:35.780Z,24.60
2023-07-25T21:10:04.049Z,24.40
2023-07-25T21:12:34.530Z,24.30
2023-07-25T21:15:02.719Z,24.40
2023-07-25T21:17:41.935Z,24.30
2023-07-25T21:20:12.687Z,24.30
2023-07-25T21:22:43.278Z,24.30
2023-07-25T21:25:14.024Z,24.40
2023-07-25T21:27:42.146Z,24.40
2023-07-25T21:30:15.029Z,24.40
2023-07-25T21:32:43.127Z,24.50
2023-07-25T21:42:43.358Z,25.00
2023-07-25T21:45:12.464Z,25.70
2023-07-25T21:47:40.737Z,26.50
2023-07-25T21:50:09.128Z,27.20
2023-07-25T21:52:37.283Z,27.40
2023-07-25T21:55:05.745Z,27.50
2023-07-25T21:57:36.140Z,27.60
2023-07-25T22:00:08.141Z,27.80
2023-07-25T22:02:44.534Z,27.80
2023-07-25T22:05:12.896Z,27.80
2023-07-25T22:07:41.416Z,27.90
2023-07-25T22:10:09.549Z,27.60
2023-07-25T22:12:37.813Z,27.40
2023-07-25T22:15:08.310Z,27.00
2023-07-25T22:17:36.403Z,26.90
2023-07-25T22:20:04.699Z,27.10
2023-07-25T22:22:32.828Z,27.30
2023-07-25T22:25:01.678Z,27.60
2023-07-25T22:27:35.261Z,27.70
2023-07-25T22:30:04.762Z,27.40
2023-07-25T22:32:33.005Z,27.00
2023-07-25T22:35:01.242Z,26.50
2023-07-25T22:37:31.253Z,26.20
2023-07-25T22:39:59.339Z,26.10
2023-07-25T22:42:27.559Z,25.90
2023-07-25T22:44:55.755Z,25.90
2023-07-25T22:47:23.923Z,25.90
2023-07-25T22:49:55.551Z,25.90
2023-07-25T22:52:26.994Z,26.90
2023-07-25T22:54:55.193Z,27.20
2023-07-25T22:57:23.479Z,27.40
2023-07-25T22:59:51.548Z,27.20
2023-07-25T23:02:19.683Z,26.90
2023-07-25T23:04:50.753Z,26.70
2023-07-25T23:07:22.018Z,27.00
2023-07-25T23:09:51.668Z,27.20
2023-07-25T23:12:23.107Z,27.40
2023-07-25T23:14:51.458Z,27.50
2023-07-25T23:17:24.753Z,27.60
2023-07-25T23:19:55.588Z,27.60
2023-07-25T23:22:24.596Z,27.70
2023-07-25T23:24:57.959Z,27.90
2023-07-25T23:27:26.619Z,28.30
2023-07-25T23:29:54.798Z,28.40
2023-07-25T23:32:23.052Z,28.40
2023-07-25T23:34:52.362Z,28.40
2023-07-25T23:37:20.653Z,28.60
2023-07-25T23:39:48.724Z,28.50
2023-07-25T23:42:17.003Z,28.40
2023-07-25T23:44:45.070Z,28.20
2023-07-25T23:47:13.449Z,28.10
2023-07-25T23:49:42.470Z,28.20
2023-07-25T23:52:10.706Z,28.20
2023-07-25T23:54:38.901Z,28.20
2023-07-25T23:57:07.109Z,28.20
2023-07-25T23:59:36.289Z,28.10
